Terminal Aerodrome Forecast
Issued by NWS

Home | Current Version | Previous Version | Text Only | Print | Product List | Glossary On
Versions: 1 2 3 4 5 6 7 8 9 10 11 12 13 14 15 16 17 18
000
FTUS43 KMPX 021740
TAFRWF
TAF
KRWF 021740Z 0218/0318 18008KT P6SM SCT040
      TEMPO 0218/0221 BKN040
     FM030300 15004KT 6SM BR SKC
     FM030900 14004KT 4SM BR SCT008
     FM031500 16008KT P6SM SKC=

USA.gov is the U.S. government's official web portal to all federal, state and local government web resources and services.